sensor_id;sensor_type;location;lat;lon;timestamp;temperature;humidity
20795;DHT22;28087;-33.874;151.240;2022-10-24T00:01:10;19.40;99.90
20795;DHT22;28087;-33.874;151.240;2022-10-24T00:03:45;19.40;99.90
20795;DHT22;28087;-33.874;151.240;2022-10-24T00:06:22;19.40;99.90
20795;DHT22;28087;-33.874;151.240;2022-10-24T00:08:58;19.50;99.90
20795;DHT22;28087;-33.874;151.240;2022-10-24T00:11:33;19.30;99.90
20795;DHT22;28087;-33.874;151.240;2022-10-24T00:14:09;19.30;99.90
20795;DHT22;28087;-33.874;151.240;2022-10-24T00:16:44;19.30;99.90
20795;DHT22;28087;-33.874;151.240;2022-10-24T00:19:20;19.30;99.90
20795;DHT22;28087;-33.874;151.240;2022-10-24T00:21:58;19.30;99.90
20795;DHT22;28087;-33.874;151.240;2022-10-24T00:24:33;19.30;99.90
20795;DHT22;28087;-33.874;151.240;2022-10-24T00:27:09;19.30;99.90
20795;DHT22;28087;-33.874;151.240;2022-10-24T00:29:44;19.40;99.90
20795;DHT22;28087;-33.874;151.240;2022-10-24T00:32:21;19.40;99.90
20795;DHT22;28087;-33.874;151.240;2022-10-24T00:34:56;19.40;99.90
20795;DHT22;28087;-33.874;151.240;2022-10-24T00:37:34;19.40;99.90
20795;DHT22;28087;-33.874;151.240;2022-10-24T00:40:10;19.40;99.90
20795;DHT22;28087;-33.874;151.240;2022-10-24T00:42:46;19.40;99.90
20795;DHT22;28087;-33.874;151.240;2022-10-24T00:45:44;19.40;99.90
20795;DHT22;28087;-33.874;151.240;2022-10-24T00:48:26;19.50;99.90
20795;DHT22;28087;-33.874;151.240;2022-10-24T00:51:03;19.50;99.90
20795;DHT22;28087;-33.874;151.240;2022-10-24T00:53:45;19.50;99.90
20795;DHT22;28087;-33.874;151.240;2022-10-24T00:56:24;19.60;99.90
20795;DHT22;28087;-33.874;151.240;2022-10-24T00:59:00;19.60;99.90
20795;DHT22;28087;-33.874;151.240;2022-10-24T01:01:36;19.60;99.90
20795;DHT22;28087;-33.874;151.240;2022-10-24T01:04:13;19.60;99.90
20795;DHT22;28087;-33.874;151.240;2022-10-24T01:06:58;19.60;99.90
20795;DHT22;28087;-33.874;151.240;2022-10-24T01:09:56;19.70;99.90
20795;DHT22;28087;-33.874;151.240;2022-10-24T01:12:42;19.80;99.90
20795;DHT22;28087;-33.874;151.240;2022-10-24T01:15:27;19.80;99.90
20795;DHT22;28087;-33.874;151.240;2022-10-24T01:18:09;19.90;99.90
20795;DHT22;28087;-33.874;151.240;2022-10-24T01:21:06;20.00;99.90
20795;DHT22;28087;-33.874;151.240;2022-10-24T01:24:09;20.10;99.90
20795;DHT22;28087;-33.874;151.240;2022-10-24T01:27:15;20.10;99.90
20795;DHT22;28087;-33.874;151.240;2022-10-24T01:30:03;20.20;99.90
20795;DHT22;28087;-33.874;151.240;2022-10-24T01:32:43;20.20;99.90
20795;DHT22;28087;-33.874;151.240;2022-10-24T01:35:36;20.10;99.90
20795;DHT22;28087;-33.874;151.240;2022-10-24T01:38:18;20.10;99.90
20795;DHT22;28087;-33.874;151.240;2022-10-24T01:40:57;20.20;99.90
20795;DHT22;28087;-33.874;151.240;2022-10-24T01:43:36;20.30;99.90
20795;DHT22;28087;-33.874;151.240;2022-10-24T01:46:17;20.20;99.90
20795;DHT22;28087;-33.874;151.240;2022-10-24T01:48:56;20.20;99.90
20795;DHT22;28087;-33.874;151.240;2022-10-24T01:51:35;20.10;99.90
20795;DHT22;28087;-33.874;151.240;2022-10-24T01:54:11;20.20;99.90
20795;DHT22;28087;-33.874;151.240;2022-10-24T01:56:46;20.20;99.90
20795;DHT22;28087;-33.874;151.240;2022-10-24T01:59:43;20.30;99.90
20795;DHT22;28087;-33.874;151.240;2022-10-24T02:02:23;20.40;99.90
20795;DHT22;28087;-33.874;151.240;2022-10-24T02:26:13;20.60;99.90
20795;DHT22;28087;-33.874;151.240;2022-10-24T02:28:59;20.60;99.90
20795;DHT22;28087;-33.874;151.240;2022-10-24T02:31:38;20.60;99.90
20795;DHT22;28087;-33.874;151.240;2022-10-24T02:34:18;20.60;99.90
20795;DHT22;28087;-33.874;151.240;2022-10-24T02:36:55;20.60;99.90
20795;DHT22;28087;-33.874;151.240;2022-10-24T02:39:33;20.60;99.90
20795;DHT22;28087;-33.874;151.240;2022-10-24T02:42:09;20.60;99.90
20795;DHT22;28087;-33.874;151.240;2022-10-24T02:44:46;20.60;99.90
20795;DHT22;28087;-33.874;151.240;2022-10-24T02:47:22;20.60;99.90
20795;DHT22;28087;-33.874;151.240;2022-10-24T02:50:03;20.60;99.90
20795;DHT22;28087;-33.874;151.240;2022-10-24T02:52:40;20.70;99.90
20795;DHT22;28087;-33.874;151.240;2022-10-24T02:55:16;20.70;99.90
20795;DHT22;28087;-33.874;151.240;2022-10-24T02:57:51;20.80;99.90
20795;DHT22;28087;-33.874;151.240;2022-10-24T03:00:27;20.80;99.90
20795;DHT22;28087;-33.874;151.240;2022-10-24T03:03:03;20.90;99.90
20795;DHT22;28087;-33.874;151.240;2022-10-24T03:05:46;20.80;99.90
20795;DHT22;28087;-33.874;151.240;2022-10-24T03:08:21;20.90;99.90
20795;DHT22;28087;-33.874;151.240;2022-10-24T03:10:57;21.00;99.90
20795;DHT22;28087;-33.874;151.240;2022-10-24T03:13:32;21.00;99.90
20795;DHT22;28087;-33.874;151.240;2022-10-24T03:16:07;21.00;99.90
20795;DHT22;28087;-33.874;151.240;2022-10-24T03:18:43;21.00;99.90
20795;DHT22;28087;-33.874;151.240;2022-10-24T03:21:21;21.00;99.90
20795;DHT22;28087;-33.874;151.240;2022-10-24T03:23:56;21.00;99.90
20795;DHT22;28087;-33.874;151.240;2022-10-24T03:26:31;21.00;99.90
20795;DHT22;28087;-33.874;151.240;2022-10-24T03:29:07;21.00;99.90
20795;DHT22;28087;-33.874;151.240;2022-10-24T03:31:45;21.00;99.90
20795;DHT22;28087;-33.874;151.240;2022-10-24T03:34:21;21.10;99.90
20795;DHT22;28087;-33.874;151.240;2022-10-24T03:36:59;21.10;99.90
20795;DHT22;28087;-33.874;151.240;2022-10-24T03:39:34;21.20;99.90
20795;DHT22;28087;-33.874;151.240;2022-10-24T03:42:09;21.20;99.90
20795;DHT22;28087;-33.874;151.240;2022-10-24T03:44:48;21.10;99.90
20795;DHT22;28087;-33.874;151.240;2022-10-24T03:47:23;21.00;99.90
20795;DHT22;28087;-33.874;151.240;2022-10-24T03:49:58;21.00;99.90
20795;DHT22;28087;-33.874;151.240;2022-10-24T03:52:35;21.00;99.90
20795;DHT22;28087;-33.874;151.240;2022-10-24T03:55:14;21.00;99.90
20795;DHT22;28087;-33.874;151.240;2022-10-24T03:57:49;21.00;99.90
20795;DHT22;28087;-33.874;151.240;2022-10-24T04:00:26;21.00;99.90
20795;DHT22;28087;-33.874;151.240;2022-10-24T04:03:02;20.90;99.90
20795;DHT22;28087;-33.874;151.240;2022-10-24T04:05:39;20.90;99.90
20795;DHT22;28087;-33.874;151.240;2022-10-24T04:41:59;20.60;99.90
20795;DHT22;28087;-33.874;151.240;2022-10-24T04:44:34;20.80;99.90
20795;DHT22;28087;-33.874;151.240;2022-10-24T05:10:28;20.80;99.90
20795;DHT22;28087;-33.874;151.240;2022-10-24T05:13:03;20.90;99.90
20795;DHT22;28087;-33.874;151.240;2022-10-24T05:15:38;20.90;99.90
20795;DHT22;28087;-33.874;151.240;2022-10-24T05:18:14;21.00;99.90
20795;DHT22;28087;-33.874;151.240;2022-10-24T05:20:49;21.00;99.90
20795;DHT22;28087;-33.874;151.240;2022-10-24T05:23:25;20.90;99.90
20795;DHT22;28087;-33.874;151.240;2022-10-24T05:26:02;21.00;99.90
20795;DHT22;28087;-33.874;151.240;2022-10-24T05:28:38;20.90;99.90
20795;DHT22;28087;-33.874;151.240;2022-10-24T05:31:18;20.90;99.90
20795;DHT22;28087;-33.874;151.240;2022-10-24T05:33:55;20.80;99.90
20795;DHT22;28087;-33.874;151.240;2022-10-24T05:36:30;20.90;99.90
20795;DHT22;28087;-33.874;151.240;2022-10-24T05:39:05;20.70;99.90
20795;DHT22;28087;-33.874;151.240;2022-10-24T05:41:42;20.80;99.90
20795;DHT22;28087;-33.874;151.240;2022-10-24T06:18:19;20.50;99.90
20795;DHT22;28087;-33.874;151.240;2022-10-24T07:28:14;20.20;99.90
20795;DHT22;28087;-33.874;151.240;2022-10-24T07:30:52;20.20;99.90
20795;DHT22;28087;-33.874;151.240;2022-10-24T07:33:28;20.00;99.90
20795;DHT22;28087;-33.874;151.240;2022-10-24T07:36:03;19.90;99.90
20795;DHT22;28087;-33.874;151.240;2022-10-24T07:38:39;20.00;99.90
20795;DHT22;28087;-33.874;151.240;2022-10-24T07:41:14;19.90;99.90
20795;DHT22;28087;-33.874;151.240;2022-10-24T07:43:49;19.80;99.90
20795;DHT22;28087;-33.874;151.240;2022-10-24T07:46:29;19.80;99.90
20795;DHT22;28087;-33.874;151.240;2022-10-24T07:49:04;19.80;99.90
20795;DHT22;28087;-33.874;151.240;2022-10-24T07:51:40;19.80;99.90
20795;DHT22;28087;-33.874;151.240;2022-10-24T07:54:16;19.70;99.90
20795;DHT22;28087;-33.874;151.240;2022-10-24T07:56:52;19.80;99.90
20795;DHT22;28087;-33.874;151.240;2022-10-24T07:59:29;19.80;99.90
20795;DHT22;28087;-33.874;151.240;2022-10-24T08:02:15;19.80;99.90
20795;DHT22;28087;-33.874;151.240;2022-10-24T08:04:51;19.80;99.90
20795;DHT22;28087;-33.874;151.240;2022-10-24T08:07:27;19.80;99.90
20795;DHT22;28087;-33.874;151.240;2022-10-24T08:10:02;19.80;99.90
20795;DHT22;28087;-33.874;151.240;2022-10-24T08:20:30;19.70;99.90
20795;DHT22;28087;-33.874;151.240;2022-10-24T08:23:06;19.90;99.90
20795;DHT22;28087;-33.874;151.240;2022-10-24T08:25:41;19.80;99.90
20795;DHT22;28087;-33.874;151.240;2022-10-24T08:28:20;19.80;99.90
20795;DHT22;28087;-33.874;151.240;2022-10-24T08:30:58;19.90;99.90
20795;DHT22;28087;-33.874;151.240;2022-10-24T08:33:36;20.00;99.90
20795;DHT22;28087;-33.874;151.240;2022-10-24T08:36:18;19.80;99.90
20795;DHT22;28087;-33.874;151.240;2022-10-24T08:38:54;19.80;99.90
20795;DHT22;28087;-33.874;151.240;2022-10-24T08:41:32;19.80;99.90
20795;DHT22;28087;-33.874;151.240;2022-10-24T08:44:19;19.80;99.90
20795;DHT22;28087;-33.874;151.240;2022-10-24T08:46:57;19.80;99.90
20795;DHT22;28087;-33.874;151.240;2022-10-24T20:52:32;20.50;99.90
20795;DHT22;28087;-33.874;151.240;2022-10-24T20:55:08;20.50;99.90
20795;DHT22;28087;-33.874;151.240;2022-10-24T20:58:01;20.40;99.90
20795;DHT22;28087;-33.874;151.240;2022-10-24T21:00:38;20.50;99.90
20795;DHT22;28087;-33.874;151.240;2022-10-24T21:03:13;20.60;99.90
20795;DHT22;28087;-33.874;151.240;2022-10-24T21:05:49;20.50;99.90
20795;DHT22;28087;-33.874;151.240;2022-10-24T21:08:24;20.60;99.90
20795;DHT22;28087;-33.874;151.240;2022-10-24T21:11:04;20.60;99.90
20795;DHT22;28087;-33.874;151.240;2022-10-24T21:13:41;20.70;99.90
20795;DHT22;28087;-33.874;151.240;2022-10-24T21:16:18;20.60;99.90
20795;DHT22;28087;-33.874;151.240;2022-10-24T21:18:57;20.60;99.90
20795;DHT22;28087;-33.874;151.240;2022-10-24T21:21:33;20.60;99.90
20795;DHT22;28087;-33.874;151.240;2022-10-24T21:24:11;20.80;99.90
20795;DHT22;28087;-33.874;151.240;2022-10-24T21:26:47;20.90;99.90
20795;DHT22;28087;-33.874;151.240;2022-10-24T21:29:22;20.90;99.90
20795;DHT22;28087;-33.874;151.240;2022-10-24T21:32:08;20.90;99.90
20795;DHT22;28087;-33.874;151.240;2022-10-24T21:34:42;21.00;99.90
20795;DHT22;28087;-33.874;151.240;2022-10-24T21:37:17;21.10;99.90
20795;DHT22;28087;-33.874;151.240;2022-10-24T21:39:53;21.30;99.90
20795;DHT22;28087;-33.874;151.240;2022-10-24T21:42:30;21.50;99.90
20795;DHT22;28087;-33.874;151.240;2022-10-24T21:45:06;21.60;99.90
20795;DHT22;28087;-33.874;151.240;2022-10-24T21:47:44;21.70;99.90
20795;DHT22;28087;-33.874;151.240;2022-10-24T21:50:19;21.60;99.90
20795;DHT22;28087;-33.874;151.240;2022-10-24T21:52:55;21.70;99.90
20795;DHT22;28087;-33.874;151.240;2022-10-24T21:55:31;21.70;99.90
20795;DHT22;28087;-33.874;151.240;2022-10-24T21:58:06;21.70;99.90
20795;DHT22;28087;-33.874;151.240;2022-10-24T22:00:41;21.70;99.90
20795;DHT22;28087;-33.874;151.240;2022-10-24T22:03:18;21.60;99.90
20795;DHT22;28087;-33.874;151.240;2022-10-24T22:05:54;21.50;99.90
20795;DHT22;28087;-33.874;151.240;2022-10-24T22:08:30;21.50;99.90
20795;DHT22;28087;-33.874;151.240;2022-10-24T22:11:06;21.40;99.90
20795;DHT22;28087;-33.874;151.240;2022-10-24T22:13:42;21.50;99.90
20795;DHT22;28087;-33.874;151.240;2022-10-24T22:16:20;21.40;99.90
20795;DHT22;28087;-33.874;151.240;2022-10-24T22:19:00;21.40;99.90
20795;DHT22;28087;-33.874;151.240;2022-10-24T22:21:37;21.40;99.90
20795;DHT22;28087;-33.874;151.240;2022-10-24T22:24:13;21.40;99.90
20795;DHT22;28087;-33.874;151.240;2022-10-24T22:26:50;21.40;99.90
20795;DHT22;28087;-33.874;151.240;2022-10-24T22:29:26;21.50;99.90
20795;DHT22;28087;-33.874;151.240;2022-10-24T22:32:02;21.50;99.90
20795;DHT22;28087;-33.874;151.240;2022-10-24T22:34:40;21.50;99.90
20795;DHT22;28087;-33.874;151.240;2022-10-24T22:37:23;21.50;99.90
20795;DHT22;28087;-33.874;151.240;2022-10-24T22:40:01;21.40;99.90
20795;DHT22;28087;-33.874;151.240;2022-10-24T22:42:37;21.40;99.90
20795;DHT22;28087;-33.874;151.240;2022-10-24T22:45:13;21.40;99.90
20795;DHT22;28087;-33.874;151.240;2022-10-24T22:48:06;21.50;99.90
20795;DHT22;28087;-33.874;151.240;2022-10-24T22:50:50;21.50;99.90
20795;DHT22;28087;-33.874;151.240;2022-10-24T22:53:44;21.50;99.90
20795;DHT22;28087;-33.874;151.240;2022-10-24T22:56:21;21.50;99.90
20795;DHT22;28087;-33.874;151.240;2022-10-24T22:58:59;21.40;99.90
20795;DHT22;28087;-33.874;151.240;2022-10-24T23:41:38;21.50;99.90
20795;DHT22;28087;-33.874;151.240;2022-10-24T23:49:34;21.70;99.90
20795;DHT22;28087;-33.874;151.240;2022-10-24T23:52:16;21.80;99.90
20795;DHT22;28087;-33.874;151.240;2022-10-24T23:54:55;21.80;99.90
20795;DHT22;28087;-33.874;151.240;2022-10-24T23:57:30;21.90;99.90
